Time;durP1;ratioP1;P1;durP2;ratioP2;P2;SDS_P1;SDS_P2;PMS_P1;PMS_P2;Temp;Humidity;BMP_temperature;BMP_pressure;BME280_temperature;BME280_humidity;BME280_pressure;Samples;Min_cycle;Max_cycle;Signal;HPM_P1;HPM_P2
2022/03/03 00:00:00;;;;;;;13.57;12.17;;;;;;;0.95;57.53;94742.38;5000487;28;20258;-62
2022/03/03 00:02:25;;;;;;;13.47;12.17;;;;;;;0.95;57.07;94743.19;5013112;28;20306;-61
2022/03/03 00:04:51;;;;;;;13.67;12.17;;;;;;;0.97;57.06;94736.16;5000597;28;20226;-61
2022/03/03 00:07:16;;;;;;;13.53;12.13;;;;;;;0.93;57.12;94729.50;5000911;28;20203;-62
2022/03/03 00:09:42;;;;;;;12.93;11.63;;;;;;;0.87;57.31;94730.75;4999349;28;20219;-62
2022/03/03 00:12:08;;;;;;;12.97;11.60;;;;;;;0.94;57.06;94726.00;4999301;28;20227;-62
2022/03/03 00:14:34;;;;;;;13.67;12.03;;;;;;;0.97;57.37;94727.56;5003468;28;20227;-61
2022/03/03 00:16:59;;;;;;;13.20;11.90;;;;;;;0.95;57.06;94721.66;5001449;28;20231;-62
2022/03/03 00:19:25;;;;;;;15.37;11.93;;;;;;;0.95;57.03;94712.13;5019412;28;20267;-61
2022/03/03 00:21:50;;;;;;;16.27;12.13;;;;;;;1.03;56.78;94709.03;5001059;28;20255;-61
2022/03/03 00:24:16;;;;;;;13.37;11.87;;;;;;;0.94;57.06;94718.25;4998910;28;20227;-61
2022/03/03 00:26:41;;;;;;;13.13;10.97;;;;;;;1.05;57.07;94717.53;5000687;28;20262;-60
2022/03/03 00:29:07;;;;;;;12.47;11.17;;;;;;;0.99;57.19;94710.16;5015663;28;20225;-60
2022/03/03 00:31:32;;;;;;;13.50;12.10;;;;;;;1.05;57.07;94717.53;5000498;28;20235;-61
2022/03/03 00:33:58;;;;;;;12.97;11.57;;;;;;;1.03;56.84;94715.03;4996687;28;20214;-62
2022/03/03 00:36:24;;;;;;;14.70;11.90;;;;;;;1.02;56.60;94720.34;5002085;28;20230;-61
2022/03/03 00:38:49;;;;;;;12.67;11.40;;;;;;;1.02;57.37;94712.56;5001839;28;20233;-61
2022/03/03 00:41:15;;;;;;;12.97;11.67;;;;;;;1.03;57.40;94716.81;5001347;28;20220;-61
2022/03/03 00:43:40;;;;;;;16.27;13.17;;;;;;;1.04;56.94;94705.50;4996734;28;20269;-63
2022/03/03 00:46:06;;;;;;;14.20;12.70;;;;;;;1.02;57.09;94717.75;4998987;28;20265;-61
2022/03/03 00:48:32;;;;;;;13.83;11.80;;;;;;;1.03;57.32;94711.63;4999869;28;20222;-62
2022/03/03 00:50:57;;;;;;;14.13;12.73;;;;;;;0.98;57.29;94711.09;4996982;28;20231;-60
2022/03/03 00:53:23;;;;;;;13.00;11.60;;;;;;;0.93;57.43;94711.38;5002852;28;20245;-62
2022/03/03 00:55:49;;;;;;;13.03;11.73;;;;;;;1.01;57.55;94711.72;5000613;28;20207;-64
2022/03/03 00:58:15;;;;;;;13.03;11.67;;;;;;;0.99;57.62;94723.94;4996851;28;20243;-64
2022/03/03 01:00:40;;;;;;;16.33;12.10;;;;;;;0.95;57.48;94717.31;4998990;28;20227;-61
2022/03/03 01:03:06;;;;;;;12.80;11.33;;;;;;;0.98;57.34;94717.09;5003581;28;20228;-61
2022/03/03 01:05:31;;;;;;;13.27;11.87;;;;;;;0.95;57.80;94716.47;5002681;28;20231;-62
2022/03/03 01:07:57;;;;;;;13.73;12.20;;;;;;;0.99;57.57;94713.59;4993593;28;20287;-61
2022/03/03 01:10:22;;;;;;;14.80;13.30;;;;;;;1.03;57.57;94714.22;5000068;28;20200;-61
2022/03/03 01:12:48;;;;;;;13.83;12.33;;;;;;;0.99;57.70;94707.56;4998170;28;20211;-63
2022/03/03 01:15:13;;;;;;;14.60;11.83;;;;;;;1.04;57.52;94713.28;4998568;28;20223;-62
2022/03/03 01:17:39;;;;;;;14.13;12.60;;;;;;;1.13;57.28;94704.91;4995368;28;20246;-64
2022/03/03 01:20:07;;;;;;;13.77;12.37;;;;;;;1.08;57.48;94717.31;4999515;28;20219;-61
2022/03/03 01:22:32;;;;;;;14.77;13.07;;;;;;;1.00;57.73;94709.25;5001789;28;20233;-62
2022/03/03 01:24:58;;;;;;;15.30;13.43;;;;;;;1.08;57.52;94700.03;4997113;28;20231;-62
2022/03/03 01:27:24;;;;;;;15.50;13.20;;;;;;;1.12;57.38;94695.47;4996671;28;20227;-60
2022/03/03 01:29:50;;;;;;;16.60;12.80;;;;;;;1.07;57.62;94694.97;4999270;28;20216;-61
2022/03/03 01:32:15;;;;;;;15.30;13.70;;;;;;;1.01;57.96;94692.75;4999152;28;20231;-62
2022/03/03 01:34:41;;;;;;;14.63;12.17;;;;;;;1.04;57.82;94698.59;4997155;28;20211;-60
2022/03/03 01:37:06;;;;;;;14.57;13.17;;;;;;;1.08;57.85;94697.44;5001503;28;20208;-62
2022/03/03 01:39:32;;;;;;;15.70;14.10;;;;;;;0.93;57.86;94684.69;4998483;28;20246;-63
2022/03/03 01:41:58;;;;;;;14.07;12.63;;;;;;;0.92;58.17;94683.84;4997281;28;20922;-62
2022/03/03 01:44:24;;;;;;;14.33;12.83;;;;;;;0.93;58.08;94687.28;4999102;28;20274;-62
2022/03/03 01:46:55;;;;;;;14.13;12.63;;;;;;;0.92;58.09;94681.28;4999377;28;20278;-63
2022/03/03 01:49:22;;;;;;;14.73;12.67;;;;;;;0.91;58.27;94679.63;5006878;28;20262;-64
2022/03/03 01:51:47;;;;;;;13.87;12.37;;;;;;;0.97;58.10;94686.16;4995604;28;20219;-62
2022/03/03 01:54:13;;;;;;;14.53;13.03;;;;;;;1.00;57.98;94685.94;4996821;28;20238;-60
2022/03/03 01:56:40;;;;;;;14.50;13.00;;;;;;;0.95;58.36;94688.00;5000121;28;20358;-61
2022/03/03 01:59:06;;;;;;;14.03;12.63;;;;;;;0.96;58.25;94676.72;5012961;28;20230;-61
2022/03/03 02:01:32;;;;;;;16.23;14.53;;;;;;;1.05;58.07;94676.94;4994356;28;20229;-61
2022/03/03 02:03:58;;;;;;;15.23;13.27;;;;;;;1.12;57.67;94672.16;5000402;28;20247;-61
2022/03/03 02:06:26;;;;;;;15.87;13.53;;;;;;;1.03;57.86;94670.19;5002358;28;20223;-60
2022/03/03 02:08:53;;;;;;;14.77;13.13;;;;;;;1.06;58.41;94681.16;5016036;28;20235;-60
2022/03/03 02:11:20;;;;;;;15.53;13.87;;;;;;;1.06;58.31;94670.81;4997583;28;20246;-60
2022/03/03 02:13:45;;;;;;;15.50;13.60;;;;;;;1.05;58.44;94671.75;5010023;28;20205;-61
2022/03/03 02:16:11;;;;;;;15.53;12.63;;;;;;;1.10;58.43;94674.03;4997466;28;20230;-61
2022/03/03 02:18:40;;;;;;;15.70;13.83;;;;;;;1.13;58.65;94671.25;4999863;28;20234;-60
2022/03/03 02:21:09;;;;;;;17.17;13.90;;;;;;;1.19;58.49;94676.00;4996750;28;20225;-61
2022/03/03 02:23:35;;;;;;;15.70;14.00;;;;;;;1.17;58.17;94677.84;5007157;28;20243;-61
2022/03/03 02:26:01;;;;;;;16.73;14.20;;;;;;;1.27;58.40;94680.66;4996337;28;20301;-60
2022/03/03 02:28:26;;;;;;;15.13;13.60;;;;;;;1.23;57.89;94674.88;4996552;28;20285;-60
2022/03/03 02:30:51;;;;;;;16.20;14.13;;;;;;;1.19;57.95;94677.75;4993762;28;20220;-60
2022/03/03 02:33:17;;;;;;;15.90;14.00;;;;;;;1.22;58.42;94673.19;4995435;28;20231;-60
2022/03/03 02:35:42;;;;;;;16.17;13.90;;;;;;;1.21;57.98;94666.38;4997777;28;20258;-61
2022/03/03 02:38:08;;;;;;;16.17;14.30;;;;;;;1.20;58.25;94682.00;4995006;28;20223;-61
2022/03/03 02:40:33;;;;;;;16.10;14.40;;;;;;;1.30;58.13;94677.88;4995233;28;20207;-63
2022/03/03 02:42:59;;;;;;;17.20;14.50;;;;;;;1.28;58.35;94667.63;4997843;28;20235;-60
2022/03/03 02:45:24;;;;;;;15.80;13.90;;;;;;;1.35;58.07;94674.97;5000204;28;20238;-62
2022/03/03 02:47:51;;;;;;;18.10;14.57;;;;;;;1.24;58.79;94670.53;4996844;28;20226;-62
2022/03/03 02:50:20;;;;;;;15.47;13.90;;;;;;;1.26;58.62;94676.44;4999476;28;20223;-61
2022/03/03 02:52:45;;;;;;;18.87;14.27;;;;;;;1.18;58.77;94671.75;5000768;28;20258;-63
2022/03/03 02:55:12;;;;;;;16.17;14.07;;;;;;;1.30;58.41;94670.91;5003625;28;20207;-61
2022/03/03 03:00:31;;;;;;;16.20;14.30;;;;;;;1.26;58.38;94679.84;4999646;28;20307;-63
2022/03/03 03:02:56;;;;;;;19.50;15.03;;;;;;;1.15;58.81;94676.31;5000407;28;20219;-62
2022/03/03 03:05:23;;;;;;;16.87;15.20;;;;;;;1.16;58.94;94676.22;4998195;28;20286;-60
2022/03/03 03:07:48;;;;;;;17.03;15.23;;;;;;;1.15;59.04;94684.94;4995668;28;20254;-62
2022/03/03 03:10:14;;;;;;;19.57;14.70;;;;;;;1.13;59.18;94673.00;4998704;28;20198;-62
2022/03/03 03:12:40;;;;;;;18.20;14.77;;;;;;;0.93;59.49;94658.78;5002377;28;20280;-64
2022/03/03 03:15:06;;;;;;;18.33;14.87;;;;;;;0.95;60.09;94678.47;5000877;28;20230;-61
2022/03/03 03:17:31;;;;;;;15.90;14.20;;;;;;;1.00;59.87;94671.22;4999489;28;20223;-62
2022/03/03 03:19:57;;;;;;;16.40;14.63;;;;;;;1.12;59.75;94669.56;4994865;28;20259;-62
2022/03/03 03:22:22;;;;;;;17.57;15.77;;;;;;;1.12;59.43;94672.16;4994796;28;20269;-61
2022/03/03 03:24:48;;;;;;;16.33;14.63;;;;;;;1.17;59.41;94672.69;4995236;28;20307;-61
2022/03/03 03:27:13;;;;;;;17.53;15.73;;;;;;;1.21;59.80;94679.31;4995398;28;20251;-61
2022/03/03 03:29:39;;;;;;;16.37;14.67;;;;;;;1.15;59.67;94678.88;4999377;28;20224;-61
2022/03/03 03:32:05;;;;;;;17.73;15.10;;;;;;;1.19;59.50;94668.22;4997537;28;20227;-60
2022/03/03 03:34:30;;;;;;;17.70;15.37;;;;;;;1.11;59.63;94667.91;4995994;28;20239;-61
2022/03/03 03:36:55;;;;;;;16.27;14.57;;;;;;;1.19;59.70;94673.41;4999788;28;20219;-61
2022/03/03 03:39:21;;;;;;;18.00;15.43;;;;;;;1.10;59.90;94676.63;5004026;28;20234;-62
2022/03/03 03:41:47;;;;;;;16.43;14.50;;;;;;;1.08;60.30;94679.31;5001555;28;20238;-65
2022/03/03 03:44:13;;;;;;;18.53;15.63;;;;;;;1.11;59.79;94675.69;5004512;28;20247;-63
2022/03/03 03:46:38;;;;;;;15.87;14.27;;;;;;;1.17;60.13;94675.25;5005522;28;20214;-61
2022/03/03 03:49:05;;;;;;;16.03;14.33;;;;;;;1.17;59.66;94674.44;4998324;28;20227;-61
2022/03/03 03:51:31;;;;;;;16.87;15.13;;;;;;;1.13;59.87;94666.06;4999613;28;20246;-61
2022/03/03 03:53:56;;;;;;;16.73;14.80;;;;;;;1.07;59.83;94656.13;5001817;28;20223;-63
2022/03/03 03:56:22;;;;;;;16.23;14.20;;;;;;;0.97;60.16;94658.50;4999249;28;20231;-62
2022/03/03 03:58:49;;;;;;;16.57;14.80;;;;;;;0.99;60.10;94659.22;4999117;28;20214;-63
2022/03/03 04:01:14;;;;;;;17.83;14.70;;;;;;;1.14;60.00;94674.66;4998793;28;20199;-62
2022/03/03 04:03:40;;;;;;;17.53;15.53;;;;;;;1.04;59.92;94656.31;4999682;28;20295;-63
2022/03/03 04:06:05;;;;;;;17.53;14.20;;;;;;;0.97;59.95;94673.22;4999269;28;20235;-63
2022/03/03 04:08:31;;;;;;;15.47;13.87;;;;;;;1.00;60.02;94663.47;5004590;28;20254;-62
2022/03/03 04:10:57;;;;;;;16.70;14.40;;;;;;;1.12;59.64;94659.22;5001622;28;20249;-62
2022/03/03 04:13:22;;;;;;;19.37;15.17;;;;;;;0.99;59.88;94660.97;4999770;28;20198;-63
2022/03/03 04:15:48;;;;;;;15.60;13.83;;;;;;;1.00;59.81;94654.88;5002160;28;20227;-64
2022/03/03 04:18:13;;;;;;;16.17;14.47;;;;;;;1.00;60.03;94636.75;4999488;28;20235;-61
2022/03/03 04:20:39;;;;;;;15.77;13.67;;;;;;;1.01;59.99;94644.41;5003846;28;20238;-62
2022/03/03 04:23:05;;;;;;;16.97;15.27;;;;;;;1.00;59.85;94662.63;5001547;28;20245;-60
2022/03/03 04:25:30;;;;;;;18.07;15.53;;;;;;;0.97;60.27;94662.84;5000469;28;20301;-60
2022/03/03 04:27:56;;;;;;;20.20;15.17;;;;;;;0.99;60.19;94661.81;4996145;28;20298;-61
2022/03/03 04:30:21;;;;;;;18.20;14.57;;;;;;;0.97;60.15;94658.50;5001198;28;20230;-63
2022/03/03 04:32:47;;;;;;;18.57;14.70;;;;;;;1.04;60.01;94661.47;4997307;28;20262;-61
2022/03/03 04:35:12;;;;;;;19.03;15.10;;;;;;;1.06;59.46;94652.69;5004612;28;20231;-62
2022/03/03 04:37:38;;;;;;;16.27;14.57;;;;;;;1.06;59.29;94649.28;5002565;28;20275;-63
2022/03/03 04:40:05;;;;;;;15.50;13.90;;;;;;;1.05;59.42;94651.03;5001917;28;20294;-61
2022/03/03 04:42:31;;;;;;;18.73;15.07;;;;;;;0.90;59.60;94654.66;4999399;28;20211;-62
2022/03/03 04:44:56;;;;;;;18.07;14.63;;;;;;;0.92;59.60;94654.56;4997056;28;20230;-62
2022/03/03 04:47:22;;;;;;;16.93;14.73;;;;;;;0.92;59.99;94651.97;4997976;28;20231;-62
2022/03/03 04:49:48;;;;;;;21.03;14.93;;;;;;;0.90;60.43;94656.41;4998725;28;20221;-61
2022/03/03 04:52:13;;;;;;;17.93;14.63;;;;;;;0.94;60.73;94655.28;5002808;28;20211;-60
2022/03/03 04:54:39;;;;;;;18.40;14.83;;;;;;;1.00;59.97;94652.28;4994316;28;20235;-62
2022/03/03 04:57:05;;;;;;;17.73;15.30;;;;;;;0.91;60.46;94648.56;5002882;28;20235;-61
2022/03/03 04:59:30;;;;;;;16.87;13.90;;;;;;;0.84;60.65;94652.47;5000132;28;20230;-60
2022/03/03 05:01:56;;;;;;;17.50;14.60;;;;;;;0.90;60.35;94648.66;4996656;28;20279;-62
2022/03/03 05:04:21;;;;;;;17.33;15.40;;;;;;;0.86;60.35;94654.03;4999378;28;20226;-62
2022/03/03 05:06:48;;;;;;;18.00;15.43;;;;;;;0.91;60.25;94653.75;5000861;28;20243;-61
2022/03/03 05:09:14;;;;;;;20.83;15.30;;;;;;;1.01;60.15;94656.53;5003459;28;20238;-60
2022/03/03 05:11:39;;;;;;;16.70;14.27;;;;;;;0.95;59.87;94646.59;5001508;28;20230;-62
2022/03/03 05:14:05;;;;;;;16.87;13.97;;;;;;;0.98;60.08;94652.38;5000060;28;20299;-61
2022/03/03 05:16:30;;;;;;;17.13;15.20;;;;;;;1.00;59.58;94652.28;5003895;28;20211;-61
2022/03/03 05:18:56;;;;;;;16.57;14.77;;;;;;;1.00;59.50;94647.09;4996806;28;20307;-61
2022/03/03 05:21:21;;;;;;;16.57;13.70;;;;;;;0.94;59.65;94647.53;4996084;28;20226;-60
2022/03/03 05:23:47;;;;;;;18.27;15.27;;;;;;;0.92;59.88;94664.91;4997193;28;20262;-62
2022/03/03 05:26:13;;;;;;;16.43;14.47;;;;;;;0.96;59.75;94648.22;4996960;28;20251;-64
2022/03/03 05:28:39;;;;;;;15.57;13.67;;;;;;;0.88;60.28;94652.19;4996782;28;20247;-61
2022/03/03 05:31:04;;;;;;;15.97;14.10;;;;;;;0.96;60.27;94662.00;4996798;28;20214;-61
2022/03/03 05:33:31;;;;;;;17.57;15.10;;;;;;;0.94;60.28;94657.88;4995852;28;20222;-61
2022/03/03 05:36:04;;;;;;;17.03;14.20;;;;;;;0.87;61.24;94658.28;5000549;28;20239;-62
2022/03/03 05:38:32;;;;;;;16.70;15.00;;;;;;;0.96;60.90;94656.81;4997308;28;20227;-62
2022/03/03 05:40:58;;;;;;;17.03;14.80;;;;;;;1.02;60.89;94658.19;4992673;28;20242;-62
2022/03/03 05:43:25;;;;;;;18.03;15.73;;;;;;;0.96;60.65;94651.63;4995077;28;20316;-59
2022/03/03 05:45:55;;;;;;;18.00;15.03;;;;;;;0.98;60.77;94660.13;4995737;28;20238;-61
2022/03/03 05:48:21;;;;;;;18.83;14.37;;;;;;;1.10;60.35;94655.91;4995452;28;20233;-60
2022/03/03 05:50:47;;;;;;;17.77;14.40;;;;;;;1.13;59.52;94665.25;4999274;28;20235;-59
2022/03/03 05:53:13;;;;;;;15.33;13.43;;;;;;;1.17;59.81;94651.13;4993463;28;20255;-60
2022/03/03 05:55:43;;;;;;;18.00;14.00;;;;;;;1.26;58.65;94661.72;4995355;28;20243;-61
2022/03/03 05:58:11;;;;;;;17.97;13.97;;;;;;;1.20;58.54;94659.53;4995172;28;20227;-62
2022/03/03 06:00:37;;;;;;;17.33;14.50;;;;;;;1.22;58.75;94665.44;4981513;28;20243;-61
2022/03/03 06:03:03;;;;;;;16.60;13.83;;;;;;;1.28;58.06;94667.63;4994415;28;20224;-59
2022/03/03 06:05:29;;;;;;;16.07;14.03;;;;;;;1.29;58.38;94668.44;4995595;28;20236;-58
2022/03/03 06:08:17;;;;;;;17.93;14.47;;;;;;;1.17;58.25;94664.91;5003377;28;20223;-61
2022/03/03 06:10:52;;;;;;;20.17;15.10;;;;;;;1.18;58.43;94663.19;5002357;28;20207;-62
2022/03/03 06:13:25;;;;;;;18.03;14.73;;;;;;;1.27;58.78;94675.50;4995446;28;20345;-61
2022/03/03 06:15:52;;;;;;;18.33;14.07;;;;;;;1.22;58.67;94646.47;4991906;28;20231;-61
2022/03/03 06:18:29;;;;;;;18.20;14.00;;;;;;;1.42;58.26;94664.09;5000440;28;20234;-60
2022/03/03 06:20:56;;;;;;;17.43;14.90;;;;;;;1.33;57.96;94662.09;4994414;28;20310;-61
2022/03/03 06:23:21;;;;;;;17.30;13.57;;;;;;;1.49;57.42;94664.47;5002313;28;20246;-64
2022/03/03 06:26:03;;;;;;;16.10;14.20;;;;;;;1.54;57.31;94662.41;5000207;28;20206;-62
2022/03/03 06:28:30;;;;;;;20.43;15.13;;;;;;;1.47;56.94;94662.00;5000112;28;20199;-60
2022/03/03 06:30:57;;;;;;;17.63;14.37;;;;;;;1.50;56.57;94658.38;5000513;28;20250;-62
2022/03/03 06:33:23;;;;;;;16.30;13.93;;;;;;;1.52;56.47;94656.50;4996398;28;20211;-62
2022/03/03 06:35:48;;;;;;;16.27;14.50;;;;;;;1.52;55.92;94653.91;4998706;28;20226;-60
2022/03/03 06:38:14;;;;;;;19.33;14.57;;;;;;;1.61;55.54;94655.88;5001248;28;20218;-62
2022/03/03 06:40:40;;;;;;;20.03;15.17;;;;;;;1.57;55.63;94654.41;5000233;28;20211;-61
2022/03/03 06:43:06;;;;;;;18.10;14.47;;;;;;;1.62;55.36;94651.50;5001682;28;20233;-65
2022/03/03 06:45:32;;;;;;;17.17;14.73;;;;;;;1.63;55.18;94656.59;4998019;28;20243;-62
2022/03/03 06:47:59;;;;;;;18.03;13.37;;;;;;;1.79;54.94;94658.91;4998730;28;20234;-65
2022/03/03 06:50:24;;;;;;;19.37;14.83;;;;;;;1.81;54.18;94658.81;4999046;28;20214;-62
2022/03/03 06:52:51;;;;;;;22.10;16.03;;;;;;;1.76;54.81;94664.31;4999750;28;20222;-61
2022/03/03 06:55:22;;;;;;;17.03;15.07;;;;;;;1.87;53.81;94663.56;4990792;28;20214;-61
2022/03/03 06:57:54;;;;;;;17.00;13.87;;;;;;;1.88;53.82;94662.66;4999497;28;20277;-60
2022/03/03 07:00:21;;;;;;;16.17;13.73;;;;;;;1.84;53.85;94672.41;4999607;28;20260;-61
2022/03/03 07:02:48;;;;;;;16.83;14.63;;;;;;;2.06;53.17;94670.88;5003410;28;20270;-61
2022/03/03 07:05:16;;;;;;;17.97;14.27;;;;;;;1.97;52.75;94667.19;4991797;28;20219;-57
2022/03/03 07:07:44;;;;;;;17.33;14.40;;;;;;;1.98;52.96;94667.09;5000125;28;20215;-61
2022/03/03 07:10:11;;;;;;;15.90;14.10;;;;;;;1.99;53.02;94673.09;4999343;28;20222;-61
2022/03/03 07:12:37;;;;;;;15.57;13.73;;;;;;;1.99;52.78;94691.25;5001147;28;20215;-61
2022/03/03 07:15:03;;;;;;;16.43;13.83;;;;;;;1.98;52.28;94672.28;5001337;28;20253;-58
2022/03/03 07:17:55;;;;;;;17.20;13.17;;;;;;;2.07;51.85;94670.78;4984464;28;20230;-59
2022/03/03 07:20:50;;;;;;;15.43;12.80;;;;;;;2.16;52.15;94684.84;4999668;28;20319;-61
2022/03/03 07:23:35;;;;;;;18.87;13.47;;;;;;;2.14;52.12;94672.00;4961209;29;20276;-58
2022/03/03 07:26:02;;;;;;;19.27;13.83;;;;;;;2.06;51.14;94670.88;4945038;29;20241;-59
2022/03/03 07:28:29;;;;;;;15.73;13.13;;;;;;;1.90;51.98;94664.22;4956807;28;20227;-60
2022/03/03 07:30:55;;;;;;;17.30;13.97;;;;;;;1.96;51.72;94668.94;4944460;28;20235;-62
2022/03/03 07:33:26;;;;;;;17.70;12.90;;;;;;;1.98;51.89;94671.44;4948442;29;20220;-61
2022/03/03 07:35:57;;;;;;;16.57;13.07;;;;;;;2.06;51.56;94679.50;4947805;29;20255;-62
2022/03/03 07:38:32;;;;;;;16.33;13.43;;;;;;;2.01;51.86;94671.22;4944292;29;20283;-58
2022/03/03 07:40:59;;;;;;;15.87;13.50;;;;;;;2.21;51.39;94662.00;4956293;28;20236;-59
2022/03/03 07:43:24;;;;;;;17.77;13.60;;;;;;;2.23;50.54;94665.34;4945225;28;20231;-60
2022/03/03 07:45:50;;;;;;;16.27;14.20;;;;;;;2.50;50.27;94667.69;4957270;28;20233;-59
2022/03/03 07:48:15;;;;;;;14.73;13.23;;;;;;;2.52;49.95;94667.59;4951975;28;20241;-61
2022/03/03 07:50:42;;;;;;;15.90;13.73;;;;;;;2.73;49.43;94667.81;4960523;28;20240;-61
2022/03/03 07:53:12;;;;;;;15.23;13.63;;;;;;;2.76;48.93;94667.56;4958135;28;20243;-61
2022/03/03 07:55:44;;;;;;;16.23;13.90;;;;;;;2.73;49.46;94666.03;4959265;28;20220;-60
2022/03/03 07:58:17;;;;;;;16.37;13.60;;;;;;;2.79;48.87;94664.75;4963061;28;20283;-60
2022/03/03 08:00:48;;;;;;;15.90;13.47;;;;;;;2.83;48.86;94671.34;4978628;28;20231;-61
2022/03/03 08:03:20;;;;;;;16.17;13.07;;;;;;;2.78;49.11;94666.53;4998304;28;20335;-61
2022/03/03 08:05:48;;;;;;;18.67;13.40;;;;;;;2.65;49.54;94674.38;5004531;28;20223;-60
2022/03/03 08:08:16;;;;;;;14.40;12.47;;;;;;;2.89;49.54;94668.31;4998452;28;20226;-59
2022/03/03 08:10:43;;;;;;;18.23;13.57;;;;;;;3.07;48.88;94668.69;5000655;28;20214;-60
2022/03/03 08:13:14;;;;;;;16.53;13.07;;;;;;;3.10;48.30;94668.47;4996457;28;20218;-60
2022/03/03 08:15:41;;;;;;;15.23;13.70;;;;;;;3.13;48.43;94672.59;4999121;28;20270;-60
2022/03/03 08:18:08;;;;;;;14.40;12.30;;;;;;;3.09;48.00;94677.22;5001971;28;20315;-60
2022/03/03 08:20:35;;;;;;;14.43;12.93;;;;;;;2.96;48.78;94672.09;4998845;28;20218;-60
2022/03/03 08:23:02;;;;;;;19.77;13.63;;;;;;;2.99;48.58;94684.03;4998106;28;20232;-58
2022/03/03 08:25:29;;;;;;;17.97;13.47;;;;;;;3.16;48.09;94667.22;5005923;28;20287;-59
2022/03/03 08:27:55;;;;;;;14.80;13.30;;;;;;;3.20;47.65;94674.63;5000642;28;20230;-59
2022/03/03 08:30:22;;;;;;;16.80;12.73;;;;;;;3.13;48.12;94676.06;5001263;28;20227;-63
2022/03/03 08:33:08;;;;;;;14.87;12.50;;;;;;;3.28;47.87;94667.09;5002334;28;20266;-60
2022/03/03 08:35:41;;;;;;;14.63;12.60;;;;;;;3.54;47.69;94670.31;4999179;28;20294;-62
2022/03/03 08:38:22;;;;;;;15.57;12.80;;;;;;;3.49;47.29;94669.81;5010388;28;20223;-62
2022/03/03 08:40:51;;;;;;;17.73;12.53;;;;;;;3.45;47.43;94660.63;5015130;28;20222;-58
2022/03/03 08:43:20;;;;;;;14.77;12.57;;;;;;;3.66;46.83;94672.91;4997942;28;20334;-59
2022/03/03 08:45:48;;;;;;;15.70;12.20;;;;;;;3.74;47.04;94665.34;4996747;28;20215;-60
2022/03/03 08:48:15;;;;;;;15.90;12.87;;;;;;;3.93;46.35;94660.38;4998399;28;20280;-61
2022/03/03 08:50:42;;;;;;;16.73;12.73;;;;;;;3.92;45.59;94658.69;5000415;28;20245;-58
2022/03/03 08:53:09;;;;;;;14.07;12.57;;;;;;;3.95;45.73;94660.22;4999324;28;20227;-57
2022/03/03 08:55:37;;;;;;;16.47;12.73;;;;;;;3.92;46.26;94671.72;4996123;28;20214;-61
2022/03/03 08:58:04;;;;;;;13.40;11.77;;;;;;;3.91;46.33;94657.06;4998715;28;20235;-59
2022/03/03 09:00:30;;;;;;;14.10;11.57;;;;;;;3.89;45.86;94655.53;4998230;28;20283;-59
2022/03/03 09:02:57;;;;;;;14.67;12.47;;;;;;;3.73;46.41;94658.50;5002319;28;20308;-57
2022/03/03 09:05:23;;;;;;;15.17;12.87;;;;;;;3.81;46.42;94671.72;4994468;28;20269;-61
2022/03/03 09:07:49;;;;;;;14.97;12.23;;;;;;;3.80;45.72;94664.06;4999979;28;20212;-61
2022/03/03 09:10:15;;;;;;;14.00;11.63;;;;;;;3.82;45.97;94673.38;4996574;28;20249;-60
2022/03/03 09:12:41;;;;;;;14.50;12.97;;;;;;;3.89;46.08;94652.91;4991255;28;20232;-63
2022/03/03 09:15:08;;;;;;;15.33;12.87;;;;;;;4.01;45.50;94667.59;4998742;28;20227;-61
2022/03/03 09:17:34;;;;;;;16.53;12.43;;;;;;;3.97;45.85;94650.53;5000171;28;20235;-59
2022/03/03 09:20:01;;;;;;;14.07;11.57;;;;;;;4.11;44.85;94642.47;4999648;28;20286;-59
2022/03/03 09:22:27;;;;;;;14.30;12.07;;;;;;;4.07;45.63;94656.69;4998269;28;20207;-60
2022/03/03 09:24:53;;;;;;;14.10;12.17;;;;;;;4.20;45.27;94666.94;5000544;28;20310;-60
2022/03/03 09:27:19;;;;;;;15.27;11.47;;;;;;;3.92;45.94;94650.91;5003204;28;20262;-58
2022/03/03 09:29:44;;;;;;;14.47;10.90;;;;;;;4.03;45.38;94663.06;4999458;28;20227;-58
2022/03/03 09:32:12;;;;;;;15.67;11.90;;;;;;;4.02;45.58;94653.63;4997546;28;20230;-61
2022/03/03 09:34:38;;;;;;;13.60;12.03;;;;;;;4.23;45.44;94650.28;5003343;28;20215;-61
2022/03/03 09:37:03;;;;;;;12.40;11.10;;;;;;;4.17;44.64;94651.56;4998909;28;20226;-61
2022/03/03 09:39:28;;;;;;;14.63;11.07;;;;;;;4.38;44.54;94660.28;4999861;28;20219;-60
2022/03/03 09:41:54;;;;;;;14.33;11.27;;;;;;;4.34;44.62;94651.06;5002769;28;20278;-61
2022/03/03 09:44:26;;;;;;;14.37;11.60;;;;;;;4.40;44.45;94653.16;5000662;28;20230;-59
2022/03/03 09:46:52;;;;;;;13.70;11.83;;;;;;;4.51;44.48;94639.28;5011545;28;20250;-61
2022/03/03 09:49:18;;;;;;;13.07;11.67;;;;;;;4.48;45.00;94649.94;4991717;28;20199;-58
2022/03/03 09:51:45;;;;;;;14.13;11.77;;;;;;;4.51;44.12;94641.06;5000160;28;20230;-58
2022/03/03 09:54:10;;;;;;;13.87;11.53;;;;;;;4.69;44.28;94647.38;4999935;28;20219;-61
2022/03/03 09:56:37;;;;;;;12.00;10.80;;;;;;;4.95;43.31;94634.81;5002606;28;20223;-63
2022/03/03 09:59:04;;;;;;;12.43;10.90;;;;;;;4.97;42.99;94640.75;4997595;28;20223;-58
2022/03/03 10:01:30;;;;;;;12.83;10.90;;;;;;;4.95;43.06;94631.41;4996685;28;20208;-61
2022/03/03 10:04:18;;;;;;;12.13;10.83;;;;;;;4.86;42.85;94639.03;5001388;28;20729;-58
2022/03/03 10:06:44;;;;;;;12.83;10.60;;;;;;;4.99;42.92;94632.78;5014379;28;20223;-60
2022/03/03 10:09:11;;;;;;;13.60;11.37;;;;;;;5.06;43.26;94653.00;4996497;28;20289;-58
2022/03/03 10:12:02;;;;;;;12.67;10.77;;;;;;;4.75;43.43;94657.28;4981587;28;20309;-61
2022/03/03 10:14:36;;;;;;;12.63;10.07;;;;;;;4.67;43.35;94638.03;5000669;28;20211;-58
2022/03/03 10:17:03;;;;;;;12.00;10.70;;;;;;;4.69;43.66;94639.56;5000123;28;20218;-59
2022/03/03 10:19:29;;;;;;;13.83;11.37;;;;;;;4.68;43.73;94632.72;5001478;28;20219;-57
2022/03/03 10:21:55;;;;;;;13.03;10.90;;;;;;;4.71;44.06;94632.47;4992441;28;20277;-59
2022/03/03 10:24:27;;;;;;;14.43;10.63;;;;;;;4.76;44.28;94634.69;4993020;28;20262;-59
2022/03/03 10:27:01;;;;;;;12.50;11.23;;;;;;;4.86;43.76;94636.41;4995303;28;20235;-59
2022/03/03 10:29:28;;;;;;;12.20;10.73;;;;;;;4.75;43.85;94652.06;4995886;28;20276;-60
2022/03/03 10:31:55;;;;;;;12.23;10.40;;;;;;;4.69;43.87;94628.31;5001813;28;20314;-58
2022/03/03 10:34:32;;;;;;;12.93;10.80;;;;;;;4.69;43.67;94636.97;5002144;28;20238;-62
2022/03/03 10:37:04;;;;;;;11.67;10.43;;;;;;;4.86;43.29;94636.41;4997760;28;20218;-61
2022/03/03 10:39:40;;;;;;;11.80;10.57;;;;;;;5.14;43.56;94647.16;4999469;28;20281;-57
2022/03/03 10:42:15;;;;;;;13.27;10.90;;;;;;;5.08;43.33;94639.84;4995666;28;20237;-56
2022/03/03 10:44:41;;;;;;;12.53;10.90;;;;;;;5.03;43.25;94621.97;4997449;28;20235;-58
2022/03/03 10:47:07;;;;;;;13.27;11.20;;;;;;;5.31;43.63;94617.88;5000824;28;20285;-61
2022/03/03 10:49:37;;;;;;;11.60;10.40;;;;;;;5.34;43.14;94613.38;5003227;28;20226;-61
2022/03/03 10:52:21;;;;;;;11.00;9.80;;;;;;;5.28;43.12;94609.50;4998842;28;20306;-60
2022/03/03 10:54:56;;;;;;;12.27;10.97;;;;;;;5.09;42.79;94623.25;5000485;28;20237;-58
2022/03/03 10:57:39;;;;;;;12.97;10.93;;;;;;;5.13;43.30;94619.41;4993640;28;20298;-59
2022/03/03 11:00:06;;;;;;;12.37;11.07;;;;;;;4.85;43.54;94621.72;5002541;28;20349;-57
2022/03/03 11:02:33;;;;;;;11.30;9.93;;;;;;;4.74;43.68;94613.16;5000411;28;20226;-58
2022/03/03 11:04:58;;;;;;;11.83;10.60;;;;;;;4.81;44.33;94619.47;5000393;28;20242;-60
2022/03/03 11:07:24;;;;;;;13.73;10.83;;;;;;;4.77;43.96;94618.91;4998329;28;20216;-58
2022/03/03 11:09:50;;;;;;;12.50;10.67;;;;;;;4.71;44.52;94627.25;5000977;28;20226;-59
2022/03/03 11:12:17;;;;;;;12.43;11.03;;;;;;;4.52;44.79;94627.09;5003980;28;20288;-61
2022/03/03 11:14:43;;;;;;;13.43;12.03;;;;;;;4.58;44.17;94626.59;5005577;28;20239;-61
2022/03/03 11:17:10;;;;;;;15.27;12.20;;;;;;;4.74;44.39;94618.34;5002384;28;20250;-63
2022/03/03 11:19:38;;;;;;;14.03;10.90;;;;;;;4.76;43.26;94632.91;5000147;28;20288;-63
2022/03/03 11:22:04;;;;;;;12.20;10.07;;;;;;;4.81;43.60;94620.34;5002893;28;20211;-59
2022/03/03 11:24:32;;;;;;;12.13;10.87;;;;;;;4.89;44.17;94622.28;5000653;28;20246;-58
2022/03/03 11:27:02;;;;;;;16.30;11.23;;;;;;;4.91;43.95;94620.38;5001371;28;20272;-60